sensor_id;sensor_type;location;lat;lon;timestamp;P1;durP1;ratioP1;P2;durP2;ratioP2
57057;SDS011;74999;52.848;6.748;2024-01-30T00:02:15;18.92;;;17.00;;
57057;SDS011;74999;52.848;6.748;2024-01-30T00:04:41;19.20;;;17.50;;
57057;SDS011;74999;52.848;6.748;2024-01-30T00:07:07;19.73;;;17.88;;
57057;SDS011;74999;52.848;6.748;2024-01-30T00:09:33;19.48;;;17.45;;
57057;SDS011;74999;52.848;6.748;2024-01-30T00:11:58;20.17;;;18.17;;
57057;SDS011;74999;52.848;6.748;2024-01-30T00:14:24;19.67;;;17.73;;
57057;SDS011;74999;52.848;6.748;2024-01-30T00:16:50;20.60;;;18.75;;
57057;SDS011;74999;52.848;6.748;2024-01-30T00:19:17;21.40;;;19.27;;
57057;SDS011;74999;52.848;6.748;2024-01-30T00:21:43;19.55;;;17.75;;
57057;SDS011;74999;52.848;6.748;2024-01-30T00:24:08;20.23;;;18.33;;
57057;SDS011;74999;52.848;6.748;2024-01-30T00:26:34;20.00;;;18.27;;
57057;SDS011;74999;52.848;6.748;2024-01-30T00:29:00;19.15;;;17.48;;
57057;SDS011;74999;52.848;6.748;2024-01-30T00:31:25;19.35;;;17.52;;
57057;SDS011;74999;52.848;6.748;2024-01-30T00:33:51;19.52;;;17.60;;
57057;SDS011;74999;52.848;6.748;2024-01-30T00:36:17;18.40;;;16.63;;
57057;SDS011;74999;52.848;6.748;2024-01-30T00:38:42;18.85;;;16.85;;
57057;SDS011;74999;52.848;6.748;2024-01-30T00:41:08;24.65;;;18.67;;
57057;SDS011;74999;52.848;6.748;2024-01-30T00:43:34;18.73;;;17.15;;
57057;SDS011;74999;52.848;6.748;2024-01-30T00:46:00;17.98;;;16.13;;
57057;SDS011;74999;52.848;6.748;2024-01-30T00:48:26;19.02;;;17.33;;
57057;SDS011;74999;52.848;6.748;2024-01-30T00:50:52;19.17;;;17.23;;
57057;SDS011;74999;52.848;6.748;2024-01-30T00:53:17;19.17;;;17.48;;
57057;SDS011;74999;52.848;6.748;2024-01-30T00:55:43;18.20;;;16.60;;
57057;SDS011;74999;52.848;6.748;2024-01-30T00:58:08;19.95;;;18.17;;
57057;SDS011;74999;52.848;6.748;2024-01-30T01:00:34;18.15;;;16.38;;
57057;SDS011;74999;52.848;6.748;2024-01-30T01:03:00;19.75;;;18.05;;
57057;SDS011;74999;52.848;6.748;2024-01-30T01:05:25;18.02;;;16.42;;
57057;SDS011;74999;52.848;6.748;2024-01-30T01:07:51;17.63;;;15.60;;
57057;SDS011;74999;52.848;6.748;2024-01-30T01:10:17;20.00;;;18.10;;
57057;SDS011;74999;52.848;6.748;2024-01-30T01:12:43;17.30;;;15.70;;
57057;SDS011;74999;52.848;6.748;2024-01-30T01:15:09;19.42;;;17.52;;
57057;SDS011;74999;52.848;6.748;2024-01-30T01:17:35;21.33;;;19.15;;
57057;SDS011;74999;52.848;6.748;2024-01-30T01:20:02;20.25;;;18.30;;
57057;SDS011;74999;52.848;6.748;2024-01-30T01:22:30;19.02;;;17.33;;
57057;SDS011;74999;52.848;6.748;2024-01-30T01:24:56;18.33;;;16.52;;
57057;SDS011;74999;52.848;6.748;2024-01-30T01:27:21;18.25;;;16.70;;
57057;SDS011;74999;52.848;6.748;2024-01-30T01:29:47;18.48;;;17.00;;
57057;SDS011;74999;52.848;6.748;2024-01-30T01:32:13;17.70;;;16.20;;
57057;SDS011;74999;52.848;6.748;2024-01-30T01:34:38;17.00;;;15.50;;
57057;SDS011;74999;52.848;6.748;2024-01-30T01:37:04;19.15;;;17.33;;
57057;SDS011;74999;52.848;6.748;2024-01-30T01:39:29;16.80;;;15.30;;
57057;SDS011;74999;52.848;6.748;2024-01-30T01:41:55;18.33;;;16.60;;
57057;SDS011;74999;52.848;6.748;2024-01-30T01:44:20;19.30;;;17.70;;
57057;SDS011;74999;52.848;6.748;2024-01-30T01:46:46;19.17;;;17.38;;
57057;SDS011;74999;52.848;6.748;2024-01-30T01:49:13;19.77;;;18.17;;
57057;SDS011;74999;52.848;6.748;2024-01-30T01:51:39;19.75;;;18.02;;
57057;SDS011;74999;52.848;6.748;2024-01-30T01:54:06;17.25;;;15.45;;
57057;SDS011;74999;52.848;6.748;2024-01-30T01:56:33;17.60;;;16.05;;
57057;SDS011;74999;52.848;6.748;2024-01-30T01:59:05;18.75;;;17.20;;
57057;SDS011;74999;52.848;6.748;2024-01-30T02:01:36;19.40;;;17.55;;
57057;SDS011;74999;52.848;6.748;2024-01-30T02:04:02;18.52;;;17.00;;
57057;SDS011;74999;52.848;6.748;2024-01-30T02:06:28;18.52;;;16.95;;
57057;SDS011;74999;52.848;6.748;2024-01-30T02:08:54;17.15;;;15.65;;
57057;SDS011;74999;52.848;6.748;2024-01-30T02:11:20;19.70;;;18.00;;
57057;SDS011;74999;52.848;6.748;2024-01-30T02:13:47;17.85;;;16.25;;
57057;SDS011;74999;52.848;6.748;2024-01-30T02:16:12;19.83;;;18.08;;
57057;SDS011;74999;52.848;6.748;2024-01-30T02:18:38;20.08;;;18.23;;
57057;SDS011;74999;52.848;6.748;2024-01-30T02:21:08;18.35;;;16.75;;
57057;SDS011;74999;52.848;6.748;2024-01-30T02:23:34;19.10;;;17.38;;
57057;SDS011;74999;52.848;6.748;2024-01-30T02:25:59;18.80;;;17.13;;
57057;SDS011;74999;52.848;6.748;2024-01-30T02:28:25;21.42;;;19.65;;
57057;SDS011;74999;52.848;6.748;2024-01-30T02:30:52;17.42;;;15.82;;
57057;SDS011;74999;52.848;6.748;2024-01-30T02:33:18;18.25;;;16.60;;
57057;SDS011;74999;52.848;6.748;2024-01-30T02:35:44;18.00;;;16.40;;
57057;SDS011;74999;52.848;6.748;2024-01-30T02:38:09;18.15;;;16.33;;
57057;SDS011;74999;52.848;6.748;2024-01-30T02:40:35;18.45;;;16.85;;
57057;SDS011;74999;52.848;6.748;2024-01-30T02:43:01;18.30;;;16.42;;
57057;SDS011;74999;52.848;6.748;2024-01-30T02:45:28;18.63;;;16.92;;
57057;SDS011;74999;52.848;6.748;2024-01-30T02:47:53;17.95;;;16.27;;
57057;SDS011;74999;52.848;6.748;2024-01-30T02:50:19;18.27;;;16.65;;
57057;SDS011;74999;52.848;6.748;2024-01-30T02:52:45;18.65;;;17.05;;
57057;SDS011;74999;52.848;6.748;2024-01-30T02:55:10;18.85;;;17.15;;
57057;SDS011;74999;52.848;6.748;2024-01-30T02:57:37;17.30;;;15.70;;
57057;SDS011;74999;52.848;6.748;2024-01-30T03:00:03;17.67;;;16.17;;
57057;SDS011;74999;52.848;6.748;2024-01-30T03:02:30;18.13;;;16.63;;
57057;SDS011;74999;52.848;6.748;2024-01-30T03:04:57;18.23;;;16.48;;
57057;SDS011;74999;52.848;6.748;2024-01-30T03:07:22;17.15;;;15.60;;
57057;SDS011;74999;52.848;6.748;2024-01-30T03:09:48;19.38;;;17.60;;
57057;SDS011;74999;52.848;6.748;2024-01-30T03:12:13;19.75;;;18.23;;
57057;SDS011;74999;52.848;6.748;2024-01-30T03:14:39;18.50;;;16.90;;
57057;SDS011;74999;52.848;6.748;2024-01-30T03:17:04;17.05;;;15.55;;
57057;SDS011;74999;52.848;6.748;2024-01-30T03:19:30;16.52;;;15.02;;
57057;SDS011;74999;52.848;6.748;2024-01-30T03:21:55;17.60;;;16.02;;
57057;SDS011;74999;52.848;6.748;2024-01-30T03:24:21;18.38;;;16.92;;
57057;SDS011;74999;52.848;6.748;2024-01-30T03:26:47;17.15;;;15.45;;
57057;SDS011;74999;52.848;6.748;2024-01-30T03:29:12;17.88;;;16.35;;
57057;SDS011;74999;52.848;6.748;2024-01-30T03:31:38;16.75;;;15.20;;
57057;SDS011;74999;52.848;6.748;2024-01-30T03:34:04;16.42;;;14.85;;
57057;SDS011;74999;52.848;6.748;2024-01-30T03:36:30;18.33;;;16.58;;
57057;SDS011;74999;52.848;6.748;2024-01-30T03:38:58;18.73;;;17.02;;
57057;SDS011;74999;52.848;6.748;2024-01-30T03:41:23;17.45;;;15.85;;
57057;SDS011;74999;52.848;6.748;2024-01-30T03:43:49;17.58;;;16.05;;
57057;SDS011;74999;52.848;6.748;2024-01-30T03:46:15;16.48;;;14.88;;
57057;SDS011;74999;52.848;6.748;2024-01-30T03:48:41;19.05;;;17.23;;
57057;SDS011;74999;52.848;6.748;2024-01-30T03:51:06;16.05;;;14.57;;
57057;SDS011;74999;52.848;6.748;2024-01-30T03:53:32;18.48;;;16.83;;
57057;SDS011;74999;52.848;6.748;2024-01-30T03:55:58;18.13;;;16.38;;
57057;SDS011;74999;52.848;6.748;2024-01-30T03:58:23;18.67;;;17.02;;
57057;SDS011;74999;52.848;6.748;2024-01-30T04:00:49;17.95;;;16.27;;
57057;SDS011;74999;52.848;6.748;2024-01-30T04:03:15;17.90;;;16.38;;
57057;SDS011;74999;52.848;6.748;2024-01-30T04:05:40;18.50;;;16.92;;
57057;SDS011;74999;52.848;6.748;2024-01-30T04:08:06;16.30;;;14.63;;
57057;SDS011;74999;52.848;6.748;2024-01-30T04:10:32;18.58;;;16.92;;
57057;SDS011;74999;52.848;6.748;2024-01-30T04:12:58;17.55;;;16.10;;
57057;SDS011;74999;52.848;6.748;2024-01-30T04:15:24;19.98;;;18.17;;
57057;SDS011;74999;52.848;6.748;2024-01-30T04:17:50;17.52;;;15.85;;
57057;SDS011;74999;52.848;6.748;2024-01-30T04:20:16;18.38;;;16.50;;
57057;SDS011;74999;52.848;6.748;2024-01-30T04:22:43;19.20;;;17.23;;
57057;SDS011;74999;52.848;6.748;2024-01-30T04:25:12;17.75;;;15.93;;
57057;SDS011;74999;52.848;6.748;2024-01-30T04:27:38;18.00;;;16.40;;
57057;SDS011;74999;52.848;6.748;2024-01-30T04:30:04;17.17;;;15.50;;
57057;SDS011;74999;52.848;6.748;2024-01-30T04:32:30;17.88;;;16.08;;
57057;SDS011;74999;52.848;6.748;2024-01-30T04:34:56;18.10;;;16.48;;
57057;SDS011;74999;52.848;6.748;2024-01-30T04:37:22;17.23;;;15.10;;
57057;SDS011;74999;52.848;6.748;2024-01-30T04:39:48;20.17;;;18.30;;
57057;SDS011;74999;52.848;6.748;2024-01-30T04:42:13;18.55;;;17.05;;
57057;SDS011;74999;52.848;6.748;2024-01-30T04:44:39;17.17;;;15.73;;
57057;SDS011;74999;52.848;6.748;2024-01-30T04:47:04;18.02;;;16.48;;
57057;SDS011;74999;52.848;6.748;2024-01-30T04:49:33;18.45;;;16.75;;
57057;SDS011;74999;52.848;6.748;2024-01-30T04:51:58;17.73;;;16.23;;
57057;SDS011;74999;52.848;6.748;2024-01-30T04:54:24;18.92;;;17.38;;
57057;SDS011;74999;52.848;6.748;2024-01-30T04:56:50;19.88;;;18.05;;
57057;SDS011;74999;52.848;6.748;2024-01-30T04:59:16;17.95;;;16.30;;
57057;SDS011;74999;52.848;6.748;2024-01-30T05:01:41;19.60;;;17.65;;
57057;SDS011;74999;52.848;6.748;2024-01-30T05:04:07;23.55;;;21.85;;
57057;SDS011;74999;52.848;6.748;2024-01-30T05:06:34;18.67;;;17.13;;
57057;SDS011;74999;52.848;6.748;2024-01-30T05:08:59;18.50;;;16.80;;
57057;SDS011;74999;52.848;6.748;2024-01-30T05:11:25;17.80;;;16.25;;
57057;SDS011;74999;52.848;6.748;2024-01-30T05:13:50;19.23;;;17.35;;
57057;SDS011;74999;52.848;6.748;2024-01-30T05:16:16;18.15;;;16.67;;
57057;SDS011;74999;52.848;6.748;2024-01-30T05:18:41;20.17;;;18.48;;
57057;SDS011;74999;52.848;6.748;2024-01-30T05:21:07;20.55;;;18.45;;
57057;SDS011;74999;52.848;6.748;2024-01-30T05:23:33;17.50;;;15.80;;
57057;SDS011;74999;52.848;6.748;2024-01-30T05:25:59;18.40;;;16.25;;
57057;SDS011;74999;52.848;6.748;2024-01-30T05:28:27;20.13;;;18.23;;
57057;SDS011;74999;52.848;6.748;2024-01-30T05:30:53;18.52;;;16.83;;
57057;SDS011;74999;52.848;6.748;2024-01-30T05:33:19;18.63;;;16.02;;
57057;SDS011;74999;52.848;6.748;2024-01-30T05:35:44;18.85;;;16.92;;
57057;SDS011;74999;52.848;6.748;2024-01-30T05:38:11;19.38;;;17.63;;
57057;SDS011;74999;52.848;6.748;2024-01-30T05:40:36;17.88;;;15.95;;
57057;SDS011;74999;52.848;6.748;2024-01-30T05:43:02;18.05;;;16.33;;
57057;SDS011;74999;52.848;6.748;2024-01-30T05:45:27;17.50;;;15.73;;
57057;SDS011;74999;52.848;6.748;2024-01-30T05:47:53;18.55;;;16.85;;
57057;SDS011;74999;52.848;6.748;2024-01-30T05:50:19;19.48;;;17.58;;
57057;SDS011;74999;52.848;6.748;2024-01-30T05:52:45;20.45;;;18.45;;
57057;SDS011;74999;52.848;6.748;2024-01-30T05:55:11;19.52;;;17.60;;
57057;SDS011;74999;52.848;6.748;2024-01-30T05:57:37;19.30;;;17.77;;
57057;SDS011;74999;52.848;6.748;2024-01-30T06:00:04;17.65;;;15.95;;
57057;SDS011;74999;52.848;6.748;2024-01-30T06:02:30;17.90;;;16.10;;
57057;SDS011;74999;52.848;6.748;2024-01-30T06:04:56;17.98;;;16.38;;
57057;SDS011;74999;52.848;6.748;2024-01-30T06:07:21;18.95;;;17.13;;
57057;SDS011;74999;52.848;6.748;2024-01-30T06:09:47;18.15;;;16.38;;
57057;SDS011;74999;52.848;6.748;2024-01-30T06:12:13;18.27;;;16.45;;
57057;SDS011;74999;52.848;6.748;2024-01-30T06:14:39;19.05;;;17.45;;
57057;SDS011;74999;52.848;6.748;2024-01-30T06:17:04;18.40;;;16.58;;
57057;SDS011;74999;52.848;6.748;2024-01-30T06:19:30;19.83;;;18.20;;
57057;SDS011;74999;52.848;6.748;2024-01-30T06:21:56;20.77;;;18.90;;
57057;SDS011;74999;52.848;6.748;2024-01-30T06:24:22;17.95;;;16.30;;
57057;SDS011;74999;52.848;6.748;2024-01-30T06:26:47;19.70;;;17.85;;
57057;SDS011;74999;52.848;6.748;2024-01-30T06:29:13;18.52;;;16.90;;
57057;SDS011;74999;52.848;6.748;2024-01-30T06:31:42;17.75;;;16.20;;
57057;SDS011;74999;52.848;6.748;2024-01-30T06:34:09;18.05;;;16.55;;
57057;SDS011;74999;52.848;6.748;2024-01-30T06:36:36;17.17;;;15.57;;
57057;SDS011;74999;52.848;6.748;2024-01-30T06:39:02;17.05;;;15.63;;
57057;SDS011;74999;52.848;6.748;2024-01-30T06:41:28;19.48;;;17.70;;
57057;SDS011;74999;52.848;6.748;2024-01-30T06:43:54;16.88;;;15.35;;
57057;SDS011;74999;52.848;6.748;2024-01-30T06:46:20;19.65;;;17.83;;
57057;SDS011;74999;52.848;6.748;2024-01-30T06:48:46;17.20;;;15.48;;
57057;SDS011;74999;52.848;6.748;2024-01-30T06:51:11;18.38;;;16.77;;
57057;SDS011;74999;52.848;6.748;2024-01-30T06:53:37;19.23;;;17.58;;
57057;SDS011;74999;52.848;6.748;2024-01-30T06:56:03;20.02;;;18.27;;
57057;SDS011;74999;52.848;6.748;2024-01-30T06:58:29;17.15;;;15.32;;
57057;SDS011;74999;52.848;6.748;2024-01-30T07:00:55;17.70;;;16.15;;
57057;SDS011;74999;52.848;6.748;2024-01-30T07:03:21;18.17;;;16.42;;
57057;SDS011;74999;52.848;6.748;2024-01-30T07:05:47;20.02;;;18.25;;
57057;SDS011;74999;52.848;6.748;2024-01-30T07:08:14;18.00;;;16.23;;
57057;SDS011;74999;52.848;6.748;2024-01-30T07:10:42;20.27;;;18.52;;
57057;SDS011;74999;52.848;6.748;2024-01-30T07:13:11;18.63;;;17.13;;
57057;SDS011;74999;52.848;6.748;2024-01-30T07:15:37;17.98;;;16.13;;
57057;SDS011;74999;52.848;6.748;2024-01-30T07:18:03;20.05;;;18.35;;
57057;SDS011;74999;52.848;6.748;2024-01-30T07:20:29;19.63;;;17.80;;
57057;SDS011;74999;52.848;6.748;2024-01-30T07:22:57;19.90;;;17.90;;
57057;SDS011;74999;52.848;6.748;2024-01-30T07:25:23;17.92;;;16.02;;
57057;SDS011;74999;52.848;6.748;2024-01-30T07:27:51;19.45;;;17.58;;
57057;SDS011;74999;52.848;6.748;2024-01-30T07:30:23;18.33;;;16.65;;
57057;SDS011;74999;52.848;6.748;2024-01-30T07:32:49;17.65;;;15.82;;
57057;SDS011;74999;52.848;6.748;2024-01-30T07:35:14;18.52;;;16.88;;
57057;SDS011;74999;52.848;6.748;2024-01-30T07:37:40;18.50;;;17.00;;
57057;SDS011;74999;52.848;6.748;2024-01-30T07:40:06;19.35;;;17.55;;
57057;SDS011;74999;52.848;6.748;2024-01-30T07:42:32;18.92;;;17.13;;
57057;SDS011;74999;52.848;6.748;2024-01-30T07:44:58;19.00;;;17.20;;
57057;SDS011;74999;52.848;6.748;2024-01-30T07:47:25;17.33;;;15.77;;
57057;SDS011;74999;52.848;6.748;2024-01-30T07:49:50;17.15;;;15.65;;
57057;SDS011;74999;52.848;6.748;2024-01-30T07:52:16;19.42;;;17.70;;
57057;SDS011;74999;52.848;6.748;2024-01-30T07:54:42;17.75;;;16.23;;
57057;SDS011;74999;52.848;6.748;2024-01-30T07:57:15;18.77;;;17.00;;
57057;SDS011;74999;52.848;6.748;2024-01-30T07:59:44;17.42;;;16.00;;
57057;SDS011;74999;52.848;6.748;2024-01-30T08:02:10;18.40;;;16.73;;
57057;SDS011;74999;52.848;6.748;2024-01-30T08:04:38;17.02;;;15.57;;
57057;SDS011;74999;52.848;6.748;2024-01-30T08:07:04;20.08;;;18.23;;
57057;SDS011;74999;52.848;6.748;2024-01-30T08:09:30;22.00;;;20.27;;
57057;SDS011;74999;52.848;6.748;2024-01-30T08:11:55;20.10;;;18.30;;
57057;SDS011;74999;52.848;6.748;2024-01-30T08:14:21;19.08;;;17.25;;
57057;SDS011;74999;52.848;6.748;2024-01-30T08:16:47;18.10;;;16.60;;
57057;SDS011;74999;52.848;6.748;2024-01-30T08:19:14;17.38;;;15.68;;
57057;SDS011;74999;52.848;6.748;2024-01-30T08:21:40;17.63;;;15.95;;
57057;SDS011;74999;52.848;6.748;2024-01-30T08:24:06;19.17;;;17.58;;
57057;SDS011;74999;52.848;6.748;2024-01-30T08:26:32;18.30;;;16.65;;
57057;SDS011;74999;52.848;6.748;2024-01-30T08:28:58;16.85;;;15.45;;
57057;SDS011;74999;52.848;6.748;2024-01-30T08:31:24;17.98;;;16.02;;
57057;SDS011;74999;52.848;6.748;2024-01-30T08:33:50;18.90;;;17.08;;
57057;SDS011;74999;52.848;6.748;2024-01-30T08:36:16;16.80;;;15.30;;
57057;SDS011;74999;52.848;6.748;2024-01-30T08:38:42;17.33;;;15.93;;
57057;SDS011;74999;52.848;6.748;2024-01-30T08:41:08;18.15;;;16.75;;
57057;SDS011;74999;52.848;6.748;2024-01-30T08:43:34;19.08;;;17.35;;
57057;SDS011;74999;52.848;6.748;2024-01-30T08:45:59;18.48;;;16.73;;
57057;SDS011;74999;52.848;6.748;2024-01-30T08:48:25;18.55;;;16.90;;
57057;SDS011;74999;52.848;6.748;2024-01-30T08:50:51;18.45;;;16.65;;
57057;SDS011;74999;52.848;6.748;2024-01-30T08:53:17;18.27;;;16.58;;
57057;SDS011;74999;52.848;6.748;2024-01-30T08:55:43;17.77;;;16.08;;
57057;SDS011;74999;52.848;6.748;2024-01-30T08:58:09;17.23;;;15.52;;
57057;SDS011;74999;52.848;6.748;2024-01-30T09:00:35;17.40;;;15.63;;
57057;SDS011;74999;52.848;6.748;2024-01-30T09:03:00;18.33;;;16.73;;
57057;SDS011;74999;52.848;6.748;2024-01-30T09:05:26;22.50;;;20.52;;
57057;SDS011;74999;52.848;6.748;2024-01-30T09:07:52;17.95;;;16.30;;
57057;SDS011;74999;52.848;6.748;2024-01-30T09:10:17;17.40;;;16.02;;
57057;SDS011;74999;52.848;6.748;2024-01-30T09:12:44;17.20;;;15.60;;
57057;SDS011;74999;52.848;6.748;2024-01-30T09:15:10;18.63;;;17.10;;
57057;SDS011;74999;52.848;6.748;2024-01-30T09:17:35;21.23;;;19.53;;
57057;SDS011;74999;52.848;6.748;2024-01-30T09:20:01;17.75;;;16.25;;
57057;SDS011;74999;52.848;6.748;2024-01-30T09:22:27;17.60;;;16.23;;
57057;SDS011;74999;52.848;6.748;2024-01-30T09:24:52;19.10;;;17.40;;
57057;SDS011;74999;52.848;6.748;2024-01-30T09:27:18;16.92;;;15.43;;
57057;SDS011;74999;52.848;6.748;2024-01-30T09:29:44;19.13;;;17.52;;
57057;SDS011;74999;52.848;6.748;2024-01-30T09:32:09;17.85;;;15.07;;
57057;SDS011;74999;52.848;6.748;2024-01-30T09:34:35;15.52;;;14.23;;
57057;SDS011;74999;52.848;6.748;2024-01-30T09:37:00;19.17;;;17.40;;
57057;SDS011;74999;52.848;6.748;2024-01-30T09:39:26;16.50;;;15.10;;
57057;SDS011;74999;52.848;6.748;2024-01-30T09:44:34;16.48;;;15.02;;
57057;SDS011;74999;52.848;6.748;2024-01-30T09:47:01;17.13;;;14.48;;
57057;SDS011;74999;52.848;6.748;2024-01-30T09:49:33;16.70;;;15.35;;
57057;SDS011;74999;52.848;6.748;2024-01-30T09:52:00;16.33;;;14.88;;
57057;SDS011;74999;52.848;6.748;2024-01-30T09:54:28;16.38;;;14.90;;
57057;SDS011;74999;52.848;6.748;2024-01-30T09:56:55;16.17;;;14.65;;
57057;SDS011;74999;52.848;6.748;2024-01-30T09:59:21;17.58;;;15.93;;
57057;SDS011;74999;52.848;6.748;2024-01-30T10:01:46;16.65;;;15.05;;
57057;SDS011;74999;52.848;6.748;2024-01-30T10:04:13;17.80;;;16.20;;
57057;SDS011;74999;52.848;6.748;2024-01-30T10:06:38;17.90;;;16.10;;
57057;SDS011;74999;52.848;6.748;2024-01-30T10:09:05;17.13;;;15.70;;
57057;SDS011;74999;52.848;6.748;2024-01-30T10:11:31;16.55;;;15.00;;
57057;SDS011;74999;52.848;6.748;2024-01-30T10:13:56;17.08;;;15.40;;
57057;SDS011;74999;52.848;6.748;2024-01-30T10:16:22;18.30;;;16.80;;
57057;SDS011;74999;52.848;6.748;2024-01-30T10:18:48;17.48;;;15.63;;
57057;SDS011;74999;52.848;6.748;2024-01-30T10:21:14;16.70;;;15.18;;
57057;SDS011;74999;52.848;6.748;2024-01-30T10:23:40;16.75;;;14.52;;
57057;SDS011;74999;52.848;6.748;2024-01-30T10:26:06;15.07;;;13.68;;
57057;SDS011;74999;52.848;6.748;2024-01-30T10:28:33;17.13;;;15.63;;
57057;SDS011;74999;52.848;6.748;2024-01-30T10:30:59;15.73;;;14.18;;
57057;SDS011;74999;52.848;6.748;2024-01-30T10:33:25;15.48;;;14.18;;
57057;SDS011;74999;52.848;6.748;2024-01-30T10:38:20;15.85;;;14.35;;
57057;SDS011;74999;52.848;6.748;2024-01-30T10:40:50;15.40;;;14.07;;
57057;SDS011;74999;52.848;6.748;2024-01-30T10:43:19;15.90;;;14.50;;
57057;SDS011;74999;52.848;6.748;2024-01-30T10:45:47;15.23;;;13.35;;
57057;SDS011;74999;52.848;6.748;2024-01-30T10:48:18;16.88;;;15.15;;
57057;SDS011;74999;52.848;6.748;2024-01-30T10:50:48;15.88;;;14.52;;
57057;SDS011;74999;52.848;6.748;2024-01-30T10:53:16;16.63;;;14.93;;
57057;SDS011;74999;52.848;6.748;2024-01-30T10:55:43;16.13;;;14.70;;
57057;SDS011;74999;52.848;6.748;2024-01-30T10:58:11;16.52;;;15.13;;
57057;SDS011;74999;52.848;6.748;2024-01-30T11:00:39;16.48;;;15.07;;
57057;SDS011;74999;52.848;6.748;2024-01-30T11:03:06;16.48;;;14.88;;
57057;SDS011;74999;52.848;6.748;2024-01-30T11:05:33;16.75;;;15.15;;
57057;SDS011;74999;52.848;6.748;2024-01-30T11:07:58;14.15;;;12.95;;
57057;SDS011;74999;52.848;6.748;2024-01-30T11:10:24;16.05;;;13.43;;
57057;SDS011;74999;52.848;6.748;2024-01-30T11:12:50;17.15;;;15.45;;
57057;SDS011;74999;52.848;6.748;2024-01-30T11:15:16;16.50;;;15.05;;
57057;SDS011;74999;52.848;6.748;2024-01-30T11:17:51;16.45;;;14.70;;
57057;SDS011;74999;52.848;6.748;2024-01-30T11:22:47;17.00;;;15.30;;
57057;SDS011;74999;52.848;6.748;2024-01-30T11:25:16;15.20;;;13.68;;
57057;SDS011;74999;52.848;6.748;2024-01-30T11:27:42;16.92;;;15.20;;
57057;SDS011;74999;52.848;6.748;2024-01-30T11:30:09;17.55;;;15.98;;
57057;SDS011;74999;52.848;6.748;2024-01-30T11:32:35;17.10;;;15.68;;
57057;SDS011;74999;52.848;6.748;2024-01-30T11:35:02;18.23;;;16.40;;
57057;SDS011;74999;52.848;6.748;2024-01-30T11:37:31;17.13;;;15.32;;
57057;SDS011;74999;52.848;6.748;2024-01-30T11:39:56;17.80;;;16.13;;
57057;SDS011;74999;52.848;6.748;2024-01-30T11:42:23;17.38;;;15.60;;
57057;SDS011;74999;52.848;6.748;2024-01-30T11:44:52;16.30;;;14.75;;
57057;SDS011;74999;52.848;6.748;2024-01-30T11:47:18;16.33;;;14.70;;
57057;SDS011;74999;52.848;6.748;2024-01-30T11:49:43;18.90;;;16.90;;
57057;SDS011;74999;52.848;6.748;2024-01-30T11:52:09;16.73;;;15.02;;
57057;SDS011;74999;52.848;6.748;2024-01-30T11:54:36;17.45;;;15.77;;
57057;SDS011;74999;52.848;6.748;2024-01-30T11:57:05;18.17;;;16.25;;
57057;SDS011;74999;52.848;6.748;2024-01-30T11:59:30;17.02;;;15.43;;
57057;SDS011;74999;52.848;6.748;2024-01-30T12:01:56;19.27;;;17.63;;
57057;SDS011;74999;52.848;6.748;2024-01-30T12:04:21;18.95;;;15.88;;
57057;SDS011;74999;52.848;6.748;2024-01-30T12:06:50;16.90;;;15.55;;
57057;SDS011;74999;52.848;6.748;2024-01-30T12:09:17;15.98;;;14.63;;
57057;SDS011;74999;52.848;6.748;2024-01-30T12:11:43;18.52;;;16.83;;
57057;SDS011;74999;52.848;6.748;2024-01-30T12:14:12;17.08;;;15.68;;
57057;SDS011;74999;52.848;6.748;2024-01-30T12:16:39;15.80;;;14.40;;
57057;SDS011;74999;52.848;6.748;2024-01-30T12:19:05;15.75;;;14.35;;
57057;SDS011;74999;52.848;6.748;2024-01-30T12:21:30;15.73;;;14.32;;
57057;SDS011;74999;52.848;6.748;2024-01-30T12:23:56;17.13;;;15.45;;
57057;SDS011;74999;52.848;6.748;2024-01-30T12:26:25;13.70;;;12.52;;
57057;SDS011;74999;52.848;6.748;2024-01-30T12:28:53;17.25;;;15.75;;
57057;SDS011;74999;52.848;6.748;2024-01-30T12:31:26;14.77;;;13.57;;
57057;SDS011;74999;52.848;6.748;2024-01-30T12:33:53;14.98;;;13.23;;
57057;SDS011;74999;52.848;6.748;2024-01-30T12:36:19;16.25;;;14.73;;
57057;SDS011;74999;52.848;6.748;2024-01-30T12:38:44;14.95;;;13.85;;
57057;SDS011;74999;52.848;6.748;2024-01-30T12:41:10;16.85;;;15.40;;
57057;SDS011;74999;52.848;6.748;2024-01-30T12:43:36;16.90;;;15.48;;
57057;SDS011;74999;52.848;6.748;2024-01-30T12:46:02;15.93;;;14.60;;
57057;SDS011;74999;52.848;6.748;2024-01-30T12:48:28;18.15;;;16.45;;
57057;SDS011;74999;52.848;6.748;2024-01-30T12:50:55;15.55;;;14.00;;
57057;SDS011;74999;52.848;6.748;2024-01-30T12:53:21;13.93;;;12.63;;
57057;SDS011;74999;52.848;6.748;2024-01-30T12:55:46;15.38;;;13.18;;
57057;SDS011;74999;52.848;6.748;2024-01-30T12:58:12;16.92;;;14.65;;
57057;SDS011;74999;52.848;6.748;2024-01-30T13:00:38;13.80;;;12.50;;
57057;SDS011;74999;52.848;6.748;2024-01-30T13:03:03;14.63;;;13.32;;
57057;SDS011;74999;52.848;6.748;2024-01-30T13:05:29;13.20;;;11.93;;
57057;SDS011;74999;52.848;6.748;2024-01-30T13:07:55;12.70;;;11.68;;
57057;SDS011;74999;52.848;6.748;2024-01-30T13:10:22;13.70;;;12.50;;
57057;SDS011;74999;52.848;6.748;2024-01-30T13:12:48;14.52;;;13.27;;
57057;SDS011;74999;52.848;6.748;2024-01-30T13:15:13;11.88;;;10.88;;
57057;SDS011;74999;52.848;6.748;2024-01-30T13:17:40;12.07;;;11.05;;
57057;SDS011;74999;52.848;6.748;2024-01-30T13:24:59;12.98;;;11.82;;
57057;SDS011;74999;52.848;6.748;2024-01-30T13:27:24;12.77;;;11.57;;
57057;SDS011;74999;52.848;6.748;2024-01-30T13:29:50;12.13;;;11.32;;
57057;SDS011;74999;52.848;6.748;2024-01-30T13:32:15;13.73;;;12.80;;
57057;SDS011;74999;52.848;6.748;2024-01-30T13:34:41;12.40;;;11.27;;
57057;SDS011;74999;52.848;6.748;2024-01-30T13:37:08;13.20;;;12.15;;
57057;SDS011;74999;52.848;6.748;2024-01-30T13:39:34;12.10;;;10.95;;
57057;SDS011;74999;52.848;6.748;2024-01-30T13:41:59;12.23;;;11.10;;
57057;SDS011;74999;52.848;6.748;2024-01-30T13:44:25;13.13;;;12.18;;
57057;SDS011;74999;52.848;6.748;2024-01-30T13:46:50;14.40;;;13.40;;
57057;SDS011;74999;52.848;6.748;2024-01-30T13:49:16;12.88;;;12.00;;
57057;SDS011;74999;52.848;6.748;2024-01-30T13:51:41;12.10;;;11.20;;
57057;SDS011;74999;52.848;6.748;2024-01-30T13:54:07;13.13;;;11.95;;
57057;SDS011;74999;52.848;6.748;2024-01-30T13:56:33;11.70;;;10.60;;
57057;SDS011;74999;52.848;6.748;2024-01-30T13:58:59;12.27;;;11.38;;
57057;SDS011;74999;52.848;6.748;2024-01-30T14:01:26;11.52;;;10.73;;
57057;SDS011;74999;52.848;6.748;2024-01-30T14:03:52;13.25;;;12.23;;
57057;SDS011;74999;52.848;6.748;2024-01-30T14:06:17;13.05;;;12.15;;
57057;SDS011;74999;52.848;6.748;2024-01-30T14:08:44;12.20;;;11.30;;
57057;SDS011;74999;52.848;6.748;2024-01-30T14:11:09;14.27;;;13.25;;
57057;SDS011;74999;52.848;6.748;2024-01-30T14:13:35;17.63;;;16.63;;
57057;SDS011;74999;52.848;6.748;2024-01-30T14:16:00;11.85;;;10.98;;
57057;SDS011;74999;52.848;6.748;2024-01-30T14:18:26;12.85;;;12.05;;
57057;SDS011;74999;52.848;6.748;2024-01-30T14:20:52;11.90;;;11.00;;
57057;SDS011;74999;52.848;6.748;2024-01-30T14:23:18;11.77;;;10.85;;
57057;SDS011;74999;52.848;6.748;2024-01-30T14:25:43;11.82;;;10.82;;
57057;SDS011;74999;52.848;6.748;2024-01-30T14:28:09;11.63;;;10.63;;